createdAt,value
2023-03-16T00:00:45.757Z,-1.60
2023-03-16T00:03:19.122Z,-1.58
2023-03-16T00:05:47.471Z,-1.84
2023-03-16T00:08:15.212Z,-1.77
2023-03-16T00:10:46.693Z,-1.88
2023-03-16T00:13:15.441Z,-1.64
2023-03-16T00:15:43.030Z,-1.97
2023-03-16T00:18:10.657Z,-2.17
2023-03-16T00:20:39.486Z,-1.99
2023-03-16T00:23:06.976Z,-2.18
2023-03-16T00:25:34.767Z,-1.99
2023-03-16T00:28:03.685Z,-2.02
2023-03-16T00:30:31.462Z,-2.01
2023-03-16T00:32:59.226Z,-2.01
2023-03-16T00:35:26.852Z,-2.03
2023-03-16T00:37:57.325Z,-2.21
2023-03-16T00:40:25.002Z,-2.13
2023-03-16T00:42:52.538Z,-1.78
2023-03-16T00:45:20.183Z,-1.74
2023-03-16T00:47:47.673Z,-2.01
2023-03-16T00:50:15.652Z,-1.73
2023-03-16T00:52:43.212Z,-1.70
2023-03-16T00:55:12.313Z,-1.72
2023-03-16T00:57:39.859Z,-1.53
2023-03-16T01:00:12.900Z,-1.82
2023-03-16T01:02:40.530Z,-1.82
2023-03-16T01:05:09.383Z,-1.64
2023-03-16T01:07:36.859Z,-1.72
2023-03-16T01:10:05.316Z,-1.86
2023-03-16T01:12:34.139Z,-1.81
2023-03-16T01:15:01.999Z,-1.86
2023-03-16T01:17:29.544Z,-1.49
2023-03-16T01:19:57.061Z,-1.24
2023-03-16T01:22:24.703Z,-0.93
2023-03-16T01:24:52.189Z,-1.35
2023-03-16T01:27:19.769Z,-1.59
2023-03-16T01:29:48.586Z,-1.77
2023-03-16T01:32:16.077Z,-1.82
2023-03-16T01:34:43.558Z,-1.88
2023-03-16T01:37:11.356Z,-2.10
2023-03-16T01:39:38.877Z,-2.14
2023-03-16T01:42:06.548Z,-2.09
2023-03-16T01:47:29.139Z,-2.13
2023-03-16T01:49:57.814Z,-2.18
2023-03-16T01:52:27.156Z,-2.31
2023-03-16T01:54:56.962Z,-2.07
2023-03-16T01:57:26.608Z,-2.20
2023-03-16T01:59:56.416Z,-2.15
2023-03-16T02:02:25.549Z,-2.18
2023-03-16T02:04:57.372Z,-2.41
2023-03-16T02:07:26.493Z,-2.29
2023-03-16T02:09:56.618Z,-2.47
2023-03-16T02:12:24.468Z,-2.51
2023-03-16T02:14:52.430Z,-2.82
2023-03-16T02:17:22.214Z,-2.75
2023-03-16T02:19:58.178Z,-2.84
2023-03-16T02:22:25.872Z,-2.84
2023-03-16T02:24:53.792Z,-2.83
2023-03-16T02:27:26.140Z,-2.72
2023-03-16T02:29:59.397Z,-2.75
2023-03-16T02:32:29.280Z,-2.78
2023-03-16T02:34:57.376Z,-3.04
2023-03-16T02:37:24.888Z,-3.19
2023-03-16T02:39:52.649Z,-3.25
2023-03-16T02:42:22.730Z,-3.03
2023-03-16T02:44:53.613Z,-3.14
2023-03-16T02:47:28.949Z,-3.12
2023-03-16T02:49:56.428Z,-3.00
2023-03-16T02:52:23.884Z,-3.08
2023-03-16T02:54:51.397Z,-2.81
2023-03-16T02:57:18.924Z,-2.88
2023-03-16T02:59:46.401Z,-2.73
2023-03-16T03:02:13.919Z,-2.85
2023-03-16T03:04:46.315Z,-2.75
2023-03-16T03:07:14.227Z,-2.77
2023-03-16T03:09:43.078Z,-2.54
2023-03-16T03:12:11.429Z,-2.87
2023-03-16T03:14:38.961Z,-2.89
2023-03-16T03:17:07.320Z,-2.91
2023-03-16T03:19:34.915Z,-2.92
2023-03-16T03:22:06.308Z,-2.91
2023-03-16T03:24:34.706Z,-2.92
2023-03-16T03:27:05.728Z,-2.98
2023-03-16T03:29:35.179Z,-2.69
2023-03-16T03:32:02.698Z,-2.89
2023-03-16T03:34:30.224Z,-2.88
2023-03-16T03:36:58.626Z,-3.05
2023-03-16T03:39:27.473Z,-3.07
2023-03-16T03:41:55.294Z,-3.40
2023-03-16T03:44:23.061Z,-3.53
2023-03-16T03:46:51.544Z,-3.14
2023-03-16T03:49:19.131Z,-3.44
2023-03-16T03:51:46.998Z,-3.39
2023-03-16T03:54:14.491Z,-3.32
2023-03-16T03:56:43.295Z,-3.48
2023-03-16T03:59:10.883Z,-3.39
2023-03-16T04:01:38.331Z,-3.38
2023-03-16T04:04:05.799Z,-3.59
2023-03-16T04:06:33.434Z,-3.47
2023-03-16T04:09:01.058Z,-3.22
2023-03-16T04:11:28.524Z,-3.32
2023-03-16T04:13:57.311Z,-3.10
2023-03-16T04:16:26.938Z,-3.01
2023-03-16T04:18:54.566Z,-3.09
2023-03-16T04:21:23.037Z,-3.12
2023-03-16T04:23:54.190Z,-3.19
2023-03-16T04:26:22.244Z,-3.44
2023-03-16T04:28:49.747Z,-2.97
2023-03-16T04:31:18.600Z,-3.08
2023-03-16T04:33:46.122Z,-2.87
2023-03-16T04:36:13.724Z,-2.85
2023-03-16T04:38:41.988Z,-3.07
2023-03-16T04:41:11.301Z,-3.02
2023-03-16T04:43:38.738Z,-2.96
2023-03-16T04:46:07.067Z,-3.17
2023-03-16T04:48:36.192Z,-3.21
2023-03-16T04:51:04.832Z,-3.19
2023-03-16T04:53:33.091Z,-3.16
2023-03-16T04:56:01.202Z,-2.89
2023-03-16T04:58:28.842Z,-3.18
2023-03-16T05:00:56.506Z,-2.94
2023-03-16T05:03:23.973Z,-3.16
2023-03-16T05:05:52.886Z,-3.13
2023-03-16T05:08:20.423Z,-3.00
2023-03-16T05:10:48.491Z,-3.08
2023-03-16T05:13:15.972Z,-3.08
2023-03-16T05:15:43.650Z,-2.96
2023-03-16T05:18:11.136Z,-2.93
2023-03-16T05:20:38.606Z,-3.04
2023-03-16T05:23:08.270Z,-2.91
2023-03-16T05:25:35.927Z,-3.07
2023-03-16T05:28:03.638Z,-3.04
2023-03-16T05:30:31.433Z,-3.17
2023-03-16T05:32:58.936Z,-3.11
2023-03-16T05:35:26.437Z,-2.91
2023-03-16T05:37:53.986Z,-2.89
2023-03-16T05:40:23.237Z,-2.92
2023-03-16T05:42:55.344Z,-3.02
2023-03-16T05:45:23.524Z,-2.85
2023-03-16T05:47:51.772Z,-2.61
2023-03-16T05:50:19.272Z,-2.91
2023-03-16T05:52:48.272Z,-2.97
2023-03-16T05:55:19.089Z,-2.79
2023-03-16T05:57:47.858Z,-2.77
2023-03-16T06:00:18.124Z,-2.36
2023-03-16T06:02:48.015Z,-2.07
2023-03-16T06:05:16.394Z,-2.20
2023-03-16T06:07:44.119Z,-2.30
2023-03-16T06:10:13.598Z,-2.49
2023-03-16T06:12:41.535Z,-2.70
2023-03-16T06:15:11.710Z,-2.62
2023-03-16T06:17:40.187Z,-2.29
2023-03-16T06:20:11.241Z,-2.22
2023-03-16T06:22:39.354Z,-2.05
2023-03-16T06:25:09.815Z,-2.29
2023-03-16T06:27:37.378Z,-1.82
2023-03-16T06:30:06.308Z,-1.85
2023-03-16T06:32:35.748Z,-1.85
2023-03-16T06:35:03.615Z,-1.60
2023-03-16T06:37:31.288Z,-1.49
2023-03-16T06:39:58.804Z,-1.38
2023-03-16T06:42:26.318Z,-1.34
2023-03-16T06:44:53.934Z,-1.33
2023-03-16T06:47:21.531Z,-1.04
2023-03-16T06:49:51.723Z,-1.08
2023-03-16T06:52:19.312Z,-0.86
2023-03-16T06:54:46.803Z,-0.89
2023-03-16T06:57:14.297Z,-0.76
2023-03-16T06:59:41.862Z,-0.63
2023-03-16T07:02:11.486Z,-0.55
2023-03-16T07:04:39.040Z,-0.69
2023-03-16T07:07:08.684Z,-0.40
2023-03-16T07:09:39.158Z,-0.53
2023-03-16T07:12:08.183Z,-0.38
2023-03-16T07:14:35.679Z,-0.27
2023-03-16T07:17:03.685Z,-0.22
2023-03-16T07:19:31.552Z,0.17
2023-03-16T07:21:59.487Z,0.15
2023-03-16T07:24:28.318Z,0.27
2023-03-16T07:26:55.969Z,0.18
2023-03-16T07:29:23.654Z,0.26
2023-03-16T07:31:51.162Z,0.42
2023-03-16T07:34:19.328Z,0.40
2023-03-16T07:36:48.632Z,0.60
2023-03-16T07:39:17.719Z,0.55
2023-03-16T07:41:46.598Z,0.66
2023-03-16T07:44:14.276Z,0.70
2023-03-16T07:46:42.376Z,0.87
2023-03-16T07:49:12.183Z,0.98
2023-03-16T07:51:40.009Z,0.83
2023-03-16T07:54:07.553Z,1.18
2023-03-16T07:56:47.745Z,1.33
2023-03-16T07:59:17.919Z,2.04
2023-03-16T08:01:46.503Z,2.12
2023-03-16T08:04:14.001Z,2.60
2023-03-16T08:06:42.330Z,1.97
2023-03-16T08:09:09.865Z,2.12
2023-03-16T08:11:37.374Z,2.25
2023-03-16T08:14:05.480Z,2.76
2023-03-16T08:16:34.368Z,2.45
2023-03-16T08:19:02.490Z,2.10
2023-03-16T08:21:30.276Z,2.18
2023-03-16T08:23:57.856Z,2.84
2023-03-16T08:26:26.518Z,3.32
2023-03-16T08:28:55.163Z,3.08
2023-03-16T08:31:23.435Z,3.69
2023-03-16T08:33:52.272Z,2.80
2023-03-16T08:36:21.003Z,3.29
2023-03-16T08:39:05.561Z,3.97
2023-03-16T08:41:34.879Z,3.62
2023-03-16T08:44:03.171Z,3.63
2023-03-16T08:46:31.761Z,3.68
2023-03-16T08:49:01.170Z,3.66
2023-03-16T08:51:29.503Z,3.47
2023-03-16T08:53:56.994Z,4.63
2023-03-16T08:56:24.622Z,4.41
2023-03-16T08:58:52.263Z,3.66
2023-03-16T09:01:20.349Z,4.01
2023-03-16T09:03:47.917Z,4.32
2023-03-16T09:06:17.990Z,4.85
2023-03-16T09:08:47.620Z,4.00
2023-03-16T09:11:16.451Z,4.90
2023-03-16T09:13:44.623Z,4.46
2023-03-16T09:16:13.728Z,5.15
2023-03-16T09:18:42.105Z,4.96
2023-03-16T09:21:13.136Z,5.90
2023-03-16T09:23:43.012Z,5.22
2023-03-16T09:26:12.461Z,4.83
2023-03-16T09:28:42.033Z,5.80
2023-03-16T09:31:11.653Z,5.67
2023-03-16T09:33:39.968Z,6.05
2023-03-16T09:36:07.531Z,5.96
2023-03-16T09:38:35.028Z,5.67
2023-03-16T09:41:09.453Z,6.75
2023-03-16T09:43:56.718Z,5.11
2023-03-16T09:46:28.371Z,5.80
2023-03-16T09:48:56.614Z,6.63
2023-03-16T09:51:34.672Z,5.17
2023-03-16T09:54:04.067Z,5.65
2023-03-16T09:56:36.680Z,5.92
2023-03-16T09:59:11.661Z,5.84
2023-03-16T10:01:48.258Z,6.59
2023-03-16T10:04:24.950Z,5.95
2023-03-16T10:06:59.199Z,5.65
2023-03-16T10:09:33.099Z,5.54
2023-03-16T10:12:03.872Z,5.90
2023-03-16T10:14:35.382Z,5.91
2023-03-16T10:17:06.861Z,5.94
2023-03-16T10:19:38.510Z,6.63
2023-03-16T10:22:15.333Z,6.57
2023-03-16T10:24:45.423Z,7.09
2023-03-16T10:27:20.451Z,6.25
2023-03-16T10:29:48.642Z,6.01
2023-03-16T10:32:18.861Z,6.28
2023-03-16T10:34:49.450Z,7.05
2023-03-16T10:37:16.939Z,6.11
2023-03-16T10:39:44.538Z,6.29
2023-03-16T10:42:18.582Z,6.54
2023-03-16T10:44:46.563Z,7.53
2023-03-16T10:47:20.113Z,6.88
2023-03-16T10:49:49.107Z,7.29
2023-03-16T10:52:21.660Z,6.79
2023-03-16T10:54:51.155Z,7.44
2023-03-16T10:57:27.234Z,7.03
2023-03-16T10:59:56.805Z,6.70
2023-03-16T11:02:27.954Z,7.46
2023-03-16T11:04:55.996Z,7.21
2023-03-16T11:07:25.544Z,7.55
2023-03-16T11:09:53.468Z,6.95
2023-03-16T11:12:27.478Z,6.32
2023-03-16T11:14:56.143Z,7.41
2023-03-16T11:17:33.044Z,6.72
2023-03-16T11:20:14.585Z,7.80
2023-03-16T11:22:42.539Z,7.72
2023-03-16T11:25:15.606Z,6.59
2023-03-16T11:27:48.465Z,7.46
2023-03-16T11:30:20.004Z,6.82
2023-03-16T11:32:50.514Z,7.56
2023-03-16T11:35:20.669Z,6.98
2023-03-16T11:37:54.703Z,7.40
2023-03-16T11:40:34.119Z,7.42
2023-03-16T11:43:10.284Z,7.31
2023-03-16T11:45:43.791Z,8.01
2023-03-16T11:48:23.790Z,7.93
2023-03-16T11:51:02.060Z,7.14
2023-03-16T11:53:38.467Z,8.00
2023-03-16T11:56:15.737Z,8.18
2023-03-16T11:58:53.008Z,8.28
2023-03-16T12:01:25.929Z,8.08
2023-03-16T12:04:01.920Z,7.81
2023-03-16T12:06:41.242Z,7.55
2023-03-16T12:09:19.811Z,8.46
2023-03-16T12:11:51.466Z,8.44
2023-03-16T12:14:25.235Z,7.55
2023-03-16T12:16:57.463Z,7.13
2023-03-16T12:19:29.106Z,8.09
2023-03-16T12:22:04.206Z,8.52
2023-03-16T12:24:36.591Z,7.63
2023-03-16T12:27:04.160Z,7.75
2023-03-16T12:29:37.069Z,7.89
2023-03-16T12:32:06.680Z,7.42
2023-03-16T12:34:39.354Z,8.27
2023-03-16T12:37:23.982Z,7.99
2023-03-16T12:40:09.008Z,7.70
2023-03-16T12:42:53.562Z,7.74
2023-03-16T12:45:30.530Z,8.29
2023-03-16T12:48:03.006Z,8.10
2023-03-16T12:50:30.738Z,8.64
2023-03-16T12:52:58.206Z,7.82
2023-03-16T12:55:28.303Z,8.22
2023-03-16T12:58:00.881Z,8.90
2023-03-16T13:00:37.609Z,8.78
2023-03-16T13:03:06.601Z,7.89
2023-03-16T13:05:35.559Z,8.34
2023-03-16T13:08:08.004Z,8.67
2023-03-16T13:10:35.623Z,8.33
2023-03-16T13:13:11.304Z,8.67
2023-03-16T13:15:40.372Z,8.16
2023-03-16T13:18:23.300Z,8.45
2023-03-16T13:20:55.019Z,9.24
2023-03-16T13:23:25.428Z,9.20
2023-03-16T13:26:06.580Z,9.05
2023-03-16T13:28:37.569Z,7.66
2023-03-16T13:31:06.845Z,8.72
2023-03-16T13:33:36.932Z,8.54
2023-03-16T13:36:06.175Z,8.10
2023-03-16T13:38:33.730Z,8.60
2023-03-16T13:41:04.636Z,8.44
2023-03-16T13:43:35.707Z,8.52
2023-03-16T13:46:05.147Z,8.51
2023-03-16T13:48:40.172Z,8.59
2023-03-16T13:51:15.130Z,8.68
2023-03-16T13:53:43.947Z,8.30
2023-03-16T13:56:14.879Z,8.66
2023-03-16T13:58:45.262Z,8.66
2023-03-16T14:01:19.193Z,8.89
2023-03-16T14:03:48.380Z,8.51
2023-03-16T14:06:23.705Z,8.04
2023-03-16T14:08:53.398Z,9.09
2023-03-16T14:11:21.171Z,8.71
2023-03-16T14:13:53.508Z,8.73
2023-03-16T14:16:21.539Z,9.25
2023-03-16T14:18:56.566Z,9.03
2023-03-16T14:21:25.836Z,8.45
2023-03-16T14:23:55.104Z,8.82
2023-03-16T14:26:22.719Z,8.01
2023-03-16T14:28:59.643Z,8.28
2023-03-16T14:31:35.676Z,8.08
2023-03-16T14:34:08.581Z,8.70
2023-03-16T14:36:36.559Z,8.76
2023-03-16T14:39:14.326Z,8.55
2023-03-16T14:41:42.265Z,9.01
2023-03-16T14:44:19.357Z,8.20
2023-03-16T14:46:46.866Z,8.30
2023-03-16T14:49:21.955Z,8.74
2023-03-16T14:51:52.696Z,8.84
2023-03-16T14:54:22.679Z,8.80
2023-03-16T14:56:51.613Z,9.20
2023-03-16T14:59:19.395Z,8.81
2023-03-16T15:01:48.256Z,8.84
2023-03-16T15:04:19.395Z,8.77
2023-03-16T15:06:48.344Z,8.10
2023-03-16T15:09:32.661Z,8.65
2023-03-16T15:12:00.169Z,9.04
2023-03-16T15:14:45.250Z,8.37
2023-03-16T15:17:12.850Z,8.49
2023-03-16T15:19:41.099Z,8.63
2023-03-16T15:22:12.750Z,8.75
2023-03-16T15:24:40.501Z,8.11
2023-03-16T15:27:19.196Z,8.33
2023-03-16T15:29:46.860Z,8.39
2023-03-16T15:32:15.616Z,7.69
2023-03-16T15:34:44.454Z,7.33
2023-03-16T15:37:15.353Z,7.44
2023-03-16T15:39:43.206Z,7.40
2023-03-16T15:42:14.848Z,7.41
2023-03-16T15:44:42.587Z,7.45
2023-03-16T15:47:10.842Z,7.54
2023-03-16T15:49:47.202Z,8.42
2023-03-16T15:52:22.847Z,8.24
2023-03-16T15:54:50.347Z,7.32
2023-03-16T15:57:18.345Z,8.19
2023-03-16T15:59:47.436Z,7.35
2023-03-16T16:02:27.542Z,7.15
2023-03-16T16:04:55.129Z,7.23
2023-03-16T16:07:24.141Z,7.15
2023-03-16T16:09:51.970Z,7.79
2023-03-16T16:12:26.582Z,7.85
2023-03-16T16:14:56.257Z,7.93
2023-03-16T16:17:42.591Z,7.79
2023-03-16T16:20:18.902Z,7.24
2023-03-16T16:22:47.726Z,7.85
2023-03-16T16:25:15.536Z,7.27
2023-03-16T16:27:43.031Z,7.34
2023-03-16T16:30:24.408Z,7.23
2023-03-16T16:32:52.183Z,7.48
2023-03-16T16:35:21.874Z,7.75
2023-03-16T16:37:51.720Z,6.92
2023-03-16T16:40:21.763Z,6.75
2023-03-16T16:42:51.076Z,6.66
2023-03-16T16:45:20.867Z,6.74
2023-03-16T16:47:52.237Z,6.61
2023-03-16T16:50:22.191Z,6.52
2023-03-16T16:52:51.537Z,6.49
2023-03-16T16:55:19.528Z,6.63
2023-03-16T16:57:47.952Z,6.42
2023-03-16T17:00:21.439Z,6.54
2023-03-16T17:02:51.634Z,6.42
2023-03-16T17:05:21.582Z,6.33
2023-03-16T17:07:50.987Z,6.24
2023-03-16T17:10:21.203Z,6.28
2023-03-16T17:12:49.289Z,6.29
2023-03-16T17:15:26.244Z,6.24
2023-03-16T17:17:57.738Z,6.29
2023-03-16T17:20:27.252Z,6.33
2023-03-16T17:22:56.119Z,6.33
2023-03-16T17:25:23.698Z,6.22
2023-03-16T17:27:53.435Z,6.14
2023-03-16T17:30:27.390Z,6.27
2023-03-16T17:32:56.314Z,6.10
2023-03-16T17:35:23.968Z,5.95
2023-03-16T17:37:51.531Z,6.39
2023-03-16T17:40:22.623Z,6.39
2023-03-16T17:42:50.894Z,6.14
2023-03-16T17:45:20.164Z,5.93
2023-03-16T17:47:48.027Z,6.31
2023-03-16T17:50:21.997Z,6.35
2023-03-16T17:52:49.478Z,5.94
2023-03-16T17:55:20.315Z,5.76
2023-03-16T17:57:50.966Z,5.58
2023-03-16T18:00:26.685Z,5.75
2023-03-16T18:02:56.008Z,5.63
2023-03-16T18:05:25.367Z,5.68
2023-03-16T18:07:53.474Z,5.70
2023-03-16T18:10:23.102Z,6.25
2023-03-16T18:12:55.969Z,5.72
2023-03-16T18:15:26.056Z,5.69
2023-03-16T18:17:53.832Z,5.75
2023-03-16T18:20:23.476Z,5.48
2023-03-16T18:22:51.182Z,5.96
2023-03-16T18:25:33.128Z,5.92
2023-03-16T18:28:02.625Z,5.90
2023-03-16T18:30:31.011Z,6.20
2023-03-16T18:32:59.162Z,5.76
2023-03-16T18:35:27.238Z,5.44
2023-03-16T18:37:55.588Z,5.72
2023-03-16T18:40:24.640Z,5.92
2023-03-16T18:42:54.284Z,5.68
2023-03-16T18:45:23.207Z,5.51
2023-03-16T18:47:52.601Z,5.79
2023-03-16T18:50:22.989Z,5.88
2023-03-16T18:52:51.615Z,5.63
2023-03-16T18:55:21.078Z,5.86
2023-03-16T18:57:51.618Z,5.52
2023-03-16T19:00:21.865Z,5.68
2023-03-16T19:02:56.752Z,5.57
2023-03-16T19:05:30.209Z,5.55
2023-03-16T19:07:57.859Z,5.23
2023-03-16T19:10:27.607Z,5.47
2023-03-16T19:12:55.780Z,5.34
2023-03-16T19:15:25.245Z,5.35
2023-03-16T19:17:53.303Z,5.25
2023-03-16T19:20:24.641Z,5.31
2023-03-16T19:22:58.186Z,5.23
2023-03-16T19:25:31.182Z,5.58
2023-03-16T19:28:00.010Z,5.16
2023-03-16T19:30:28.969Z,5.03
2023-03-16T19:32:57.419Z,5.53
2023-03-16T19:35:44.715Z,5.55
2023-03-16T19:38:16.143Z,5.68
2023-03-16T19:40:43.901Z,5.34
2023-03-16T19:43:19.350Z,5.08
2023-03-16T19:45:47.563Z,5.13
2023-03-16T19:48:20.156Z,5.09
2023-03-16T19:50:49.783Z,5.20
2023-03-16T19:53:18.833Z,4.92
2023-03-16T19:55:47.660Z,5.24
2023-03-16T19:58:26.853Z,4.98
2023-03-16T20:00:55.349Z,5.10
2023-03-16T20:03:24.084Z,5.08
2023-03-16T20:05:53.641Z,5.03
2023-03-16T20:08:23.216Z,5.08
2023-03-16T20:10:51.245Z,4.79
2023-03-16T20:13:20.155Z,4.73
2023-03-16T20:15:48.214Z,4.79
2023-03-16T20:18:17.236Z,4.75
2023-03-16T20:20:45.501Z,4.84
2023-03-16T20:23:23.291Z,4.63
2023-03-16T20:25:52.943Z,4.61
2023-03-16T20:28:25.807Z,5.47
2023-03-16T20:30:56.253Z,4.88
2023-03-16T20:33:28.925Z,5.01
2023-03-16T20:35:58.804Z,6.04
2023-03-16T20:38:31.842Z,5.51
2023-03-16T20:41:05.490Z,5.40
2023-03-16T20:43:35.218Z,5.68
2023-03-16T20:46:07.228Z,5.79
2023-03-16T20:48:37.503Z,5.64
2023-03-16T20:51:08.574Z,5.03
2023-03-16T20:53:46.684Z,4.64
2023-03-16T20:56:17.681Z,5.43
2023-03-16T20:58:47.868Z,4.84
2023-03-16T21:01:18.336Z,4.56
2023-03-16T21:03:47.752Z,5.26
2023-03-16T21:06:22.314Z,4.83
2023-03-16T21:08:53.038Z,4.42
2023-03-16T21:11:24.903Z,4.36
2023-03-16T21:13:53.050Z,4.62
2023-03-16T21:16:21.780Z,4.62
2023-03-16T21:18:49.724Z,5.46
2023-03-16T21:21:20.497Z,5.78
2023-03-16T21:23:48.337Z,5.50
2023-03-16T21:26:20.216Z,4.85
2023-03-16T21:28:51.914Z,4.49
2023-03-16T21:31:19.940Z,5.02
2023-03-16T21:33:48.578Z,4.35
2023-03-16T21:36:18.233Z,4.32
2023-03-16T21:38:46.804Z,4.97
2023-03-16T21:41:17.912Z,5.91
2023-03-16T21:43:46.606Z,5.40
2023-03-16T21:46:18.076Z,5.33
2023-03-16T21:48:48.842Z,4.91
2023-03-16T21:51:18.917Z,5.14
2023-03-16T21:53:48.002Z,5.20
2023-03-16T21:56:18.771Z,5.07
2023-03-16T21:58:47.327Z,4.95
2023-03-16T22:01:23.421Z,4.91
2023-03-16T22:03:53.158Z,4.98
2023-03-16T22:06:21.148Z,4.78
2023-03-16T22:08:49.172Z,4.87
2023-03-16T22:11:19.748Z,4.61
2023-03-16T22:13:47.589Z,4.26
2023-03-16T22:16:17.389Z,4.50
2023-03-16T22:18:47.009Z,4.34
2023-03-16T22:21:28.632Z,4.59
2023-03-16T22:23:57.644Z,4.79
2023-03-16T22:26:28.853Z,4.54
2023-03-16T22:28:57.177Z,4.50
2023-03-16T22:31:30.257Z,4.46
2023-03-16T22:33:57.920Z,4.28
2023-03-16T22:36:26.004Z,4.60
2023-03-16T22:38:57.327Z,4.22
2023-03-16T22:41:25.418Z,4.53
2023-03-16T22:43:55.263Z,4.24
2023-03-16T22:46:25.454Z,4.50
2023-03-16T22:48:53.844Z,4.43
2023-03-16T22:51:25.560Z,4.60
2023-03-16T22:53:57.393Z,4.60
2023-03-16T22:56:25.552Z,4.21
2023-03-16T22:58:56.736Z,4.13
2023-03-16T23:01:28.964Z,4.50
2023-03-16T23:03:56.581Z,4.51
2023-03-16T23:06:26.564Z,4.24
2023-03-16T23:08:55.400Z,4.55
2023-03-16T23:11:24.834Z,4.64
2023-03-16T23:13:53.471Z,4.63
2023-03-16T23:16:24.451Z,4.53
2023-03-16T23:18:52.869Z,4.36
2023-03-16T23:21:25.833Z,4.45
2023-03-16T23:24:03.548Z,4.04
2023-03-16T23:26:32.697Z,3.93
2023-03-16T23:29:00.849Z,3.77
2023-03-16T23:31:30.891Z,4.33
2023-03-16T23:33:59.143Z,4.45
2023-03-16T23:36:27.536Z,4.08
2023-03-16T23:38:55.743Z,3.85
2023-03-16T23:41:25.415Z,3.76
2023-03-16T23:43:54.692Z,4.02
2023-03-16T23:46:24.557Z,4.34
2023-03-16T23:48:55.376Z,3.96
2023-03-16T23:51:27.339Z,3.90
2023-03-16T23:53:55.837Z,4.35
2023-03-16T23:56:24.742Z,4.28
2023-03-16T23:58:52.826Z,4.48
